Time;durP1;ratioP1;P1;durP2;ratioP2;P2;SDS_P1;SDS_P2;PMS_P1;PMS_P2;Temp;Humidity;BMP_temperature;BMP_pressure;BME280_temperature;BME280_humidity;BME280_pressure;Samples;Min_cycle;Max_cycle;Signal;HPM_P1;HPM_P2
2023/07/09 00:01:20;;;;;;;;;;;;;;;20.01;100.00;101673.66;5007908;28;19929;-72
2023/07/09 00:03:48;;;;;;;;;;;;;;;19.90;100.00;101674.78;4987921;28;19959;-72
2023/07/09 00:06:13;;;;;;;;;;;;;;;19.81;100.00;101672.16;5004814;28;19925;-72
2023/07/09 00:08:39;;;;;;;;;;;;;;;19.70;100.00;101678.72;4987440;28;19948;-72
2023/07/09 00:11:04;;;;;;;;;;;;;;;19.68;100.00;101681.63;5011126;28;19921;-72
2023/07/09 00:13:30;;;;;;;;;;;;;;;19.63;100.00;101683.97;5010583;28;19976;-72
2023/07/09 00:15:57;;;;;;;;;;;;;;;19.61;100.00;101678.66;5011245;28;20004;-72
2023/07/09 00:18:22;;;;;;;;;;;;;;;19.78;100.00;101679.63;4994362;28;20221;-72
2023/07/09 00:20:48;;;;;;;;;;;;;;;19.76;100.00;101681.66;4991113;28;19925;-72
2023/07/09 00:23:13;;;;;;;;;;;;;;;19.75;100.00;101688.13;4993179;28;19989;-72
2023/07/09 00:25:43;;;;;;;;;;;;;;;19.72;100.00;101691.19;4990582;28;19929;-72
2023/07/09 00:28:12;;;;;;;;;;;;;;;19.72;100.00;101685.72;5009023;28;19925;-72
2023/07/09 00:30:37;;;;;;;;;;;;;;;19.81;100.00;101688.50;4985915;28;20012;-72
2023/07/09 00:33:04;;;;;;;;;;;;;;;19.93;100.00;101690.81;4976478;28;20022;-72
2023/07/09 00:35:30;;;;;;;;;;;;;;;19.96;100.00;101686.06;5006190;28;19925;-72
2023/07/09 00:38:00;;;;;;;;;;;;;;;20.02;100.00;101688.16;4983144;28;20364;-72
2023/07/09 00:40:25;;;;;;;;;;;;;;;19.94;100.00;101686.25;5001415;28;19932;-72
2023/07/09 00:42:52;;;;;;;;;;;;;;;19.91;100.00;101686.56;4976911;28;19921;-72
2023/07/09 00:45:24;;;;;;;;;;;;;;;19.89;100.00;101685.88;5011605;28;19972;-72
2023/07/09 00:48:03;;;;;;;;;;;;;;;19.82;100.00;101691.06;4995610;28;19925;-72
2023/07/09 00:50:36;;;;;;;;;;;;;;;19.71;100.00;101688.59;4995932;28;19925;-72
2023/07/09 00:53:07;;;;;;;;;;;;;;;19.64;100.00;101689.22;4999879;28;20294;-72
2023/07/09 00:55:32;;;;;;;;;;;;;;;19.65;100.00;101695.56;5018456;28;19921;-72
2023/07/09 00:58:02;;;;;;;;;;;;;;;19.70;100.00;101689.63;5016276;28;19971;-72
2023/07/09 01:00:29;;;;;;;;;;;;;;;19.71;100.00;101692.19;4996598;28;19937;-72
2023/07/09 01:02:54;;;;;;;;;;;;;;;19.70;100.00;101684.16;5016068;28;20017;-72
2023/07/09 01:05:19;;;;;;;;;;;;;;;19.72;100.00;101696.63;4992894;28;19932;-72
2023/07/09 01:07:48;;;;;;;;;;;;;;;19.67;100.00;101689.94;4999179;28;19925;-72
2023/07/09 01:10:14;;;;;;;;;;;;;;;19.58;100.00;101689.88;5016479;28;19979;-72
2023/07/09 01:12:39;;;;;;;;;;;;;;;19.48;100.00;101692.69;4999509;28;19925;-72
2023/07/09 01:15:07;;;;;;;;;;;;;;;19.43;100.00;101691.44;5013073;28;20444;-72
2023/07/09 01:17:32;;;;;;;;;;;;;;;19.48;100.00;101689.13;5012777;28;19925;-72
2023/07/09 01:19:58;;;;;;;;;;;;;;;19.57;100.00;101690.91;4998848;28;20286;-72
2023/07/09 01:22:23;;;;;;;;;;;;;;;19.65;100.00;101684.66;5015530;28;19921;-72
2023/07/09 01:24:53;;;;;;;;;;;;;;;19.71;100.00;101686.75;4993376;28;19932;-72
2023/07/09 01:27:20;;;;;;;;;;;;;;;19.70;100.00;101682.31;4982429;28;20288;-72
2023/07/09 01:29:48;;;;;;;;;;;;;;;19.57;100.00;101674.56;4993878;28;20055;-72
2023/07/09 01:32:18;;;;;;;;;;;;;;;19.52;100.00;101674.16;4976727;28;19921;-72
2023/07/09 01:34:44;;;;;;;;;;;;;;;19.45;100.00;101675.81;4996353;28;19960;-72
2023/07/09 01:37:09;;;;;;;;;;;;;;;19.37;100.00;101676.59;4994892;28;19929;-72
2023/07/09 01:39:35;;;;;;;;;;;;;;;19.33;100.00;101686.09;4994526;28;20414;-72
2023/07/09 01:42:01;;;;;;;;;;;;;;;19.36;100.00;101680.34;5010449;28;19963;-72
2023/07/09 01:44:29;;;;;;;;;;;;;;;19.38;100.00;101672.88;5012819;28;20355;-72
2023/07/09 01:46:54;;;;;;;;;;;;;;;19.33;100.00;101680.66;5015680;28;19929;-72
2023/07/09 01:49:20;;;;;;;;;;;;;;;19.27;100.00;101679.41;5014749;28;19975;-72
2023/07/09 01:51:47;;;;;;;;;;;;;;;19.20;100.00;101688.38;5011591;28;20429;-72
2023/07/09 01:54:12;;;;;;;;;;;;;;;19.07;100.00;101695.03;4998358;28;19931;-72
2023/07/09 01:56:38;;;;;;;;;;;;;;;19.02;100.00;101695.53;4999067;28;19925;-72
2023/07/09 01:59:03;;;;;;;;;;;;;;;19.09;100.00;101697.59;5010317;28;19933;-72
2023/07/09 02:01:29;;;;;;;;;;;;;;;19.12;100.00;101700.88;4993492;28;19978;-72
2023/07/09 02:03:54;;;;;;;;;;;;;;;19.09;100.00;101705.75;4996151;28;19928;-72
2023/07/09 02:06:19;;;;;;;;;;;;;;;19.02;100.00;101706.41;4983676;28;19932;-72
2023/07/09 02:08:45;;;;;;;;;;;;;;;18.93;100.00;101707.28;5015474;28;19929;-72
2023/07/09 02:11:10;;;;;;;;;;;;;;;18.86;100.00;101708.91;4997088;28;19925;-72
2023/07/09 02:13:35;;;;;;;;;;;;;;;18.83;100.00;101711.91;4997086;28;20377;-72
2023/07/09 02:16:00;;;;;;;;;;;;;;;18.87;100.00;101722.38;4996045;28;20403;-72
2023/07/09 02:18:28;;;;;;;;;;;;;;;18.81;100.00;101711.22;4994153;28;19983;-72
2023/07/09 02:20:53;;;;;;;;;;;;;;;18.69;100.00;101716.88;4990223;28;20067;-72
2023/07/09 02:23:18;;;;;;;;;;;;;;;18.56;100.00;101709.09;5014794;28;19929;-72
2023/07/09 02:25:43;;;;;;;;;;;;;;;18.52;100.00;101707.66;5011853;28;19926;-72
2023/07/09 02:28:09;;;;;;;;;;;;;;;18.54;100.00;101713.81;4995484;28;19947;-72
2023/07/09 02:30:34;;;;;;;;;;;;;;;18.56;100.00;101706.38;4979612;28;19932;-72
2023/07/09 02:32:59;;;;;;;;;;;;;;;18.62;100.00;101712.22;5010576;28;19925;-72
2023/07/09 02:35:24;;;;;;;;;;;;;;;18.68;100.00;101711.56;4990929;28;20287;-72
2023/07/09 02:37:49;;;;;;;;;;;;;;;18.66;100.00;101713.63;5014920;28;20411;-72
2023/07/09 02:40:15;;;;;;;;;;;;;;;18.66;100.00;101709.03;4993255;28;20431;-72
2023/07/09 02:42:40;;;;;;;;;;;;;;;18.67;100.00;101710.75;4994101;28;20472;-72
2023/07/09 02:45:05;;;;;;;;;;;;;;;18.63;100.00;101711.19;4997600;28;20100;-72
2023/07/09 02:47:31;;;;;;;;;;;;;;;18.55;100.00;101711.94;4989603;28;19964;-72
2023/07/09 02:49:56;;;;;;;;;;;;;;;18.48;100.00;101711.69;4978317;28;19925;-72
2023/07/09 02:52:21;;;;;;;;;;;;;;;18.34;100.00;101710.31;4999850;28;19972;-72
2023/07/09 02:54:46;;;;;;;;;;;;;;;18.30;100.00;101714.34;4995335;28;20368;-72
2023/07/09 02:57:12;;;;;;;;;;;;;;;18.28;100.00;101716.34;4993869;28;19928;-72
2023/07/09 02:59:37;;;;;;;;;;;;;;;18.25;100.00;101706.63;4994553;28;19964;-72
2023/07/09 03:02:02;;;;;;;;;;;;;;;18.36;100.00;101712.91;4980636;28;20066;-72
2023/07/09 03:04:27;;;;;;;;;;;;;;;18.38;100.00;101710.91;4991046;28;19921;-71
2023/07/09 03:06:53;;;;;;;;;;;;;;;18.43;100.00;101722.16;4972502;28;20379;-72
2023/07/09 03:09:18;;;;;;;;;;;;;;;18.44;100.00;101718.44;4997043;28;20411;-72
2023/07/09 03:11:44;;;;;;;;;;;;;;;18.48;100.00;101724.44;4992857;28;19929;-72
2023/07/09 03:14:09;;;;;;;;;;;;;;;18.53;100.00;101717.53;4991536;28;19971;-73
2023/07/09 03:16:34;;;;;;;;;;;;;;;18.54;100.00;101718.41;4991285;28;20019;-72
2023/07/09 03:19:00;;;;;;;;;;;;;;;18.42;100.00;101715.88;4974776;28;20372;-72
2023/07/09 03:21:26;;;;;;;;;;;;;;;18.43;100.00;101716.72;4992203;28;19979;-73
2023/07/09 03:23:51;;;;;;;;;;;;;;;18.38;100.00;101719.91;4989460;28;19933;-72
2023/07/09 03:26:16;;;;;;;;;;;;;;;18.40;100.00;101717.03;4975423;28;20035;-72
2023/07/09 03:28:42;;;;;;;;;;;;;;;18.40;100.00;101720.59;4974886;28;20232;-72
2023/07/09 03:31:07;;;;;;;;;;;;;;;18.46;100.00;101715.56;4993134;28;19925;-72
2023/07/09 03:33:32;;;;;;;;;;;;;;;18.52;100.00;101725.84;4993774;28;20437;-73
2023/07/09 03:35:57;;;;;;;;;;;;;;;18.51;100.00;101711.38;4993257;28;20897;-72
2023/07/09 03:38:22;;;;;;;;;;;;;;;18.53;100.00;101709.38;4993951;28;19925;-72
2023/07/09 03:40:54;;;;;;;;;;;;;;;18.53;100.00;101716.69;4981408;28;19925;-72
2023/07/09 03:43:20;;;;;;;;;;;;;;;18.44;100.00;101710.28;5001401;28;20039;-72
2023/07/09 03:45:46;;;;;;;;;;;;;;;18.35;100.00;101698.44;4996878;28;20370;-72
2023/07/09 03:48:11;;;;;;;;;;;;;;;18.32;100.00;101708.78;5007761;28;19964;-73
2023/07/09 03:50:36;;;;;;;;;;;;;;;18.25;100.00;101709.34;5006723;28;20359;-72
2023/07/09 03:53:01;;;;;;;;;;;;;;;18.12;100.00;101714.28;5004395;28;19925;-72
2023/07/09 03:55:27;;;;;;;;;;;;;;;18.05;100.00;101714.00;5013201;28;19932;-73
2023/07/09 03:57:55;;;;;;;;;;;;;;;18.05;100.00;101711.28;4996469;28;19925;-72
2023/07/09 04:00:20;;;;;;;;;;;;;;;18.05;100.00;101708.56;4992546;28;19925;-72
2023/07/09 04:02:46;;;;;;;;;;;;;;;18.04;100.00;101712.28;4993857;28;19974;-72
2023/07/09 04:05:11;;;;;;;;;;;;;;;18.04;100.00;101719.59;4988529;28;20404;-72
2023/07/09 04:07:37;;;;;;;;;;;;;;;18.02;100.00;101716.16;4993764;28;19981;-72
2023/07/09 04:10:02;;;;;;;;;;;;;;;18.00;100.00;101710.88;4993955;28;19921;-72
2023/07/09 04:12:28;;;;;;;;;;;;;;;17.97;100.00;101717.44;4975913;28;20103;-73
2023/07/09 04:14:53;;;;;;;;;;;;;;;18.08;100.00;101719.13;4989978;28;19921;-72
2023/07/09 04:17:18;;;;;;;;;;;;;;;18.20;100.00;101717.09;5013270;28;20299;-72
2023/07/09 04:19:43;;;;;;;;;;;;;;;18.28;100.00;101706.34;5014674;28;20305;-72
2023/07/09 04:22:10;;;;;;;;;;;;;;;18.25;100.00;101712.06;4988506;28;20372;-72
2023/07/09 04:24:35;;;;;;;;;;;;;;;18.27;100.00;101712.78;4988588;28;19929;-72
2023/07/09 04:27:02;;;;;;;;;;;;;;;18.32;100.00;101711.50;4993392;28;19936;-73
2023/07/09 04:29:28;;;;;;;;;;;;;;;18.35;100.00;101716.63;4995735;28;20135;-73
2023/07/09 04:31:53;;;;;;;;;;;;;;;18.41;100.00;101716.88;5014750;28;19931;-73
2023/07/09 04:34:18;;;;;;;;;;;;;;;18.48;100.00;101722.56;5002905;28;20265;-73
2023/07/09 04:36:44;;;;;;;;;;;;;;;18.54;100.00;101719.25;4995479;28;19940;-73
2023/07/09 04:39:09;;;;;;;;;;;;;;;18.68;100.00;101720.59;4994843;28;19944;-73
2023/07/09 04:41:34;;;;;;;;;;;;;;;18.76;100.00;101722.56;5010076;28;20363;-72
2023/07/09 04:43:59;;;;;;;;;;;;;;;18.86;100.00;101730.66;5015362;28;20344;-72
2023/07/09 04:46:25;;;;;;;;;;;;;;;18.96;100.00;101723.34;5014086;28;19941;-73
2023/07/09 04:48:50;;;;;;;;;;;;;;;19.03;100.00;101732.59;5012267;28;19952;-73
2023/07/09 04:51:15;;;;;;;;;;;;;;;19.19;100.00;101736.50;4994892;28;20592;-72
2023/07/09 04:53:42;;;;;;;;;;;;;;;19.31;100.00;101738.00;4998340;28;20363;-73
2023/07/09 04:56:07;;;;;;;;;;;;;;;19.41;100.00;101734.31;4996344;28;19929;-72
2023/07/09 04:58:32;;;;;;;;;;;;;;;19.58;100.00;101736.19;5006798;28;20263;-73
2023/07/09 05:00:58;;;;;;;;;;;;;;;19.72;100.00;101739.34;4992095;28;19925;-72
2023/07/09 05:03:23;;;;;;;;;;;;;;;19.87;100.00;101737.75;5014429;28;19932;-73
2023/07/09 05:05:48;;;;;;;;;;;;;;;20.02;100.00;101738.06;5013660;28;20331;-73
2023/07/09 05:08:13;;;;;;;;;;;;;;;20.17;100.00;101727.41;4991314;28;20296;-72
2023/07/09 05:10:45;;;;;;;;;;;;;;;20.30;100.00;101737.03;4993633;28;19928;-73
2023/07/09 05:13:11;;;;;;;;;;;;;;;20.47;100.00;101738.81;4995550;28;20266;-73
2023/07/09 05:15:39;;;;;;;;;;;;;;;20.59;100.00;101727.63;5011162;28;20353;-73
2023/07/09 05:18:04;;;;;;;;;;;;;;;20.70;100.00;101735.50;4974771;28;19960;-72
2023/07/09 05:20:29;;;;;;;;;;;;;;;20.81;100.00;101732.53;5012148;28;19929;-73
2023/07/09 05:22:55;;;;;;;;;;;;;;;20.95;100.00;101732.88;4997304;28;19925;-73
2023/07/09 05:25:20;;;;;;;;;;;;;;;21.10;100.00;101725.78;4983966;28;19971;-73
2023/07/09 05:27:45;;;;;;;;;;;;;;;21.23;100.00;101724.41;5014060;28;19967;-73
2023/07/09 05:30:11;;;;;;;;;;;;;;;21.33;100.00;101722.38;4998454;28;19988;-73
2023/07/09 05:32:36;;;;;;;;;;;;;;;21.40;100.00;101722.56;4973764;28;20027;-73
2023/07/09 05:35:01;;;;;;;;;;;;;;;21.49;100.00;101716.06;4999378;28;19929;-72
2023/07/09 05:37:27;;;;;;;;;;;;;;;21.58;100.00;101714.19;5009040;28;20267;-73
2023/07/09 05:39:52;;;;;;;;;;;;;;;21.68;100.00;101709.44;5008496;28;19937;-73
2023/07/09 05:42:17;;;;;;;;;;;;;;;21.69;100.00;101708.41;4983077;28;19921;-73
2023/07/09 05:44:43;;;;;;;;;;;;;;;21.81;100.00;101711.66;4997182;28;19927;-73
2023/07/09 05:47:08;;;;;;;;;;;;;;;21.90;100.00;101707.03;4987691;28;19979;-73
2023/07/09 05:49:33;;;;;;;;;;;;;;;21.98;100.00;101706.97;5012163;28;19925;-73
2023/07/09 05:51:58;;;;;;;;;;;;;;;22.02;100.00;101712.97;4993298;28;19968;-73
2023/07/09 05:54:23;;;;;;;;;;;;;;;22.06;100.00;101714.34;4994896;28;20016;-73
2023/07/09 05:56:49;;;;;;;;;;;;;;;22.18;100.00;101712.06;5012504;28;19932;-72
2023/07/09 05:59:14;;;;;;;;;;;;;;;22.26;100.00;101708.47;4993103;28;19927;-73
2023/07/09 06:01:39;;;;;;;;;;;;;;;22.28;100.00;101718.19;5008690;28;19925;-73
2023/07/09 06:04:04;;;;;;;;;;;;;;;22.35;100.00;101721.09;5001793;28;19936;-72
2023/07/09 06:06:29;;;;;;;;;;;;;;;22.40;100.00;101721.38;4997186;28;20761;-72
2023/07/09 06:08:55;;;;;;;;;;;;;;;22.54;100.00;101719.81;5013393;28;20382;-73
2023/07/09 06:11:20;;;;;;;;;;;;;;;22.68;100.00;101723.69;4993105;28;20574;-72
2023/07/09 06:13:46;;;;;;;;;;;;;;;22.80;100.00;101728.78;4992389;28;20324;-73
2023/07/09 06:16:11;;;;;;;;;;;;;;;22.99;100.00;101733.81;4975764;28;20006;-72
2023/07/09 06:18:36;;;;;;;;;;;;;;;23.21;100.00;101734.91;4991222;28;19925;-72
2023/07/09 06:21:02;;;;;;;;;;;;;;;23.44;100.00;101736.78;4986714;28;20370;-72
2023/07/09 06:23:27;;;;;;;;;;;;;;;23.66;100.00;101725.97;4974203;28;19933;-73
2023/07/09 06:25:53;;;;;;;;;;;;;;;23.87;100.00;101727.16;4991427;28;19929;-72
2023/07/09 06:28:19;;;;;;;;;;;;;;;24.07;100.00;101722.00;4999924;28;19934;-73
2023/07/09 06:30:45;;;;;;;;;;;;;;;24.21;100.00;101723.91;5009295;28;20065;-73
2023/07/09 06:33:11;;;;;;;;;;;;;;;24.37;100.00;101722.84;5011415;28;20461;-73
2023/07/09 06:35:36;;;;;;;;;;;;;;;24.47;100.00;101718.97;4992428;28;19927;-72
2023/07/09 06:38:01;;;;;;;;;;;;;;;24.54;100.00;101719.91;4994272;28;19929;-73
2023/07/09 06:40:26;;;;;;;;;;;;;;;24.68;100.00;101724.53;4991282;28;20279;-73
2023/07/09 06:42:52;;;;;;;;;;;;;;;24.81;100.00;101729.34;4991638;28;20328;-72
2023/07/09 06:45:17;;;;;;;;;;;;;;;24.90;100.00;101727.34;5010836;28;20293;-73
2023/07/09 06:47:42;;;;;;;;;;;;;;;24.99;100.00;101723.44;4994228;28;20370;-73
2023/07/09 06:50:07;;;;;;;;;;;;;;;25.13;100.00;101723.59;5010906;28;19963;-73
2023/07/09 06:52:33;;;;;;;;;;;;;;;25.31;100.00;101714.88;5008195;28;19933;-73
2023/07/09 06:54:58;;;;;;;;;;;;;;;25.52;100.00;101726.97;5011500;28;20375;-73
2023/07/09 06:57:23;;;;;;;;;;;;;;;25.69;100.00;101722.03;5008557;28;19929;-73
2023/07/09 06:59:49;;;;;;;;;;;;;;;25.84;100.00;101732.91;5010819;28;22590;-72
2023/07/09 07:02:15;;;;;;;;;;;;;;;25.95;100.00;101728.78;5012083;28;19925;-72
2023/07/09 07:04:41;;;;;;;;;;;;;;;26.07;100.00;101729.06;5012503;28;20032;-72
2023/07/09 07:07:06;;;;;;;;;;;;;;;25.98;100.00;101726.47;5008816;28;20398;-73
2023/07/09 07:09:32;;;;;;;;;;;;;;;26.05;100.00;101732.88;5011026;28;19925;-72
2023/07/09 07:11:57;;;;;;;;;;;;;;;25.99;100.00;101724.56;5005301;28;19926;-73
2023/07/09 07:14:22;;;;;;;;;;;;;;;25.97;100.00;101718.41;5010801;28;20458;-73
2023/07/09 07:16:47;;;;;;;;;;;;;;;26.08;100.00;101722.53;5007120;28;20064;-73
2023/07/09 07:19:12;;;;;;;;;;;;;;;26.25;100.00;101723.91;5013637;28;19968;-73
2023/07/09 07:21:38;;;;;;;;;;;;;;;26.38;100.00;101717.63;5015894;28;20016;-72
2023/07/09 07:24:03;;;;;;;;;;;;;;;26.50;100.00;101712.41;4994067;28;20111;-72
2023/07/09 07:26:28;;;;;;;;;;;;;;;26.64;100.00;101714.13;5009666;28;21501;-73
2023/07/09 07:28:54;;;;;;;;;;;;;;;26.80;100.00;101712.09;4996800;28;19920;-72
2023/07/09 07:31:19;;;;;;;;;;;;;;;26.91;100.00;101705.16;5009647;28;19980;-72
2023/07/09 07:33:44;;;;;;;;;;;;;;;27.10;100.00;101709.84;5009337;28;19925;-72
2023/07/09 07:36:09;;;;;;;;;;;;;;;27.22;100.00;101706.50;5005248;28;19925;-73
2023/07/09 07:38:35;;;;;;;;;;;;;;;27.28;100.00;101711.16;5005189;28;19967;-71
2023/07/09 07:41:00;;;;;;;;;;;;;;;27.37;100.00;101707.13;4968518;28;20024;-72
2023/07/09 07:43:26;;;;;;;;;;;;;;;27.36;100.00;101710.13;4987380;28;20084;-72
2023/07/09 07:45:51;;;;;;;;;;;;;;;27.34;100.00;101712.22;5009260;28;19921;-71
2023/07/09 07:48:16;;;;;;;;;;;;;;;27.47;100.00;101703.97;5006330;28;19924;-72
2023/07/09 07:50:41;;;;;;;;;;;;;;;27.67;100.00;101706.75;5009715;28;19965;-71
2023/07/09 07:53:07;;;;;;;;;;;;;;;27.71;100.00;101706.31;4988425;28;19929;-71
2023/07/09 07:55:33;;;;;;;;;;;;;;;27.88;100.00;101701.22;5006571;28;19929;-71
2023/07/09 07:57:59;;;;;;;;;;;;;;;28.05;100.00;101705.19;5008296;28;19951;-71
2023/07/09 08:00:25;;;;;;;;;;;;;;;28.11;100.00;101706.28;5011391;28;19940;-71
2023/07/09 08:02:50;;;;;;;;;;;;;;;28.20;100.00;101707.75;5003784;28;19988;-72
2023/07/09 08:05:15;;;;;;;;;;;;;;;28.18;100.00;101706.28;5005692;28;20054;-71
2023/07/09 08:07:41;;;;;;;;;;;;;;;28.26;100.00;101708.78;5008486;28;19932;-71
2023/07/09 08:10:06;;;;;;;;;;;;;;;28.38;100.00;101712.56;4985744;28;20028;-71
2023/07/09 08:12:32;;;;;;;;;;;;;;;28.59;100.00;101710.56;5006209;28;20032;-71
2023/07/09 08:14:57;;;;;;;;;;;;;;;28.76;100.00;101716.47;5007764;28;19968;-72
2023/07/09 08:17:22;;;;;;;;;;;;;;;28.90;100.00;101708.97;4983321;28;19968;-71
2023/07/09 08:19:49;;;;;;;;;;;;;;;28.99;100.00;101706.78;4996832;28;19979;-72
2023/07/09 08:22:14;;;;;;;;;;;;;;;28.90;100.00;101703.44;4990383;28;19959;-72
2023/07/09 08:24:40;;;;;;;;;;;;;;;28.88;93.16;101705.56;5014301;28;19929;-72
2023/07/09 08:27:09;;;;;;;;;;;;;;;28.98;94.06;101705.09;4992401;28;19929;-72
2023/07/09 08:29:34;;;;;;;;;;;;;;;29.03;93.23;101700.59;4971418;28;19967;-72
2023/07/09 08:31:59;;;;;;;;;;;;;;;29.16;100.00;101701.56;4982890;28;20035;-72
2023/07/09 08:34:25;;;;;;;;;;;;;;;29.31;100.00;101702.09;4984626;28;19995;-72
2023/07/09 08:36:50;;;;;;;;;;;;;;;29.43;90.41;101701.41;5005077;28;19957;-71
2023/07/09 08:39:15;;;;;;;;;;;;;;;29.55;90.43;101702.34;4977138;28;20004;-71
2023/07/09 08:41:47;;;;;;;;;;;;;;;29.39;82.58;101698.25;4992750;28;19968;-72
2023/07/09 08:44:31;;;;;;;;;;;;;;;29.42;94.49;101700.53;4992017;28;20334;-73
2023/07/09 08:47:03;;;;;;;;;;;;;;;29.40;84.15;101693.56;5012793;28;19929;-74
2023/07/09 08:49:43;;;;;;;;;;;;;;;29.58;89.75;101696.38;5009247;28;19929;-71
2023/07/09 08:52:15;;;;;;;;;;;;;;;29.71;86.74;101687.09;5013068;28;20178;-71
2023/07/09 08:54:40;;;;;;;;;;;;;;;29.83;86.28;101687.19;5012122;28;20395;-74
2023/07/09 08:57:18;;;;;;;;;;;;;;;29.86;89.08;101694.19;5014354;28;19925;-72
2023/07/09 08:59:43;;;;;;;;;;;;;;;29.88;82.13;101690.13;4997551;28;20029;-72
2023/07/09 09:02:14;;;;;;;;;;;;;;;29.88;73.97;101689.28;4996728;28;19925;-73
2023/07/09 09:04:39;;;;;;;;;;;;;;;29.96;76.22;101693.69;4999180;28;19917;-75
2023/07/09 09:07:13;;;;;;;;;;;;;;;30.11;79.48;101685.03;4980582;28;19964;-71
2023/07/09 09:09:53;;;;;;;;;;;;;;;30.07;79.73;101685.47;4988840;28;19925;-74
2023/07/09 09:12:24;;;;;;;;;;;;;;;30.20;74.14;101686.38;4985519;28;19922;-73
2023/07/09 09:14:52;;;;;;;;;;;;;;;30.17;72.04;101684.13;4997137;28;19929;-74
2023/07/09 09:17:18;;;;;;;;;;;;;;;30.34;68.74;101676.84;4997379;28;19925;-71
2023/07/09 09:19:47;;;;;;;;;;;;;;;30.65;69.04;101679.69;5012220;28;19963;-71
2023/07/09 09:22:13;;;;;;;;;;;;;;;30.76;72.00;101678.03;5010521;28;19956;-72
2023/07/09 09:24:57;;;;;;;;;;;;;;;30.55;60.82;101680.22;4992442;28;20199;-72
2023/07/09 09:27:22;;;;;;;;;;;;;;;30.84;71.29;101680.47;5012009;28;19972;-71
2023/07/09 09:29:47;;;;;;;;;;;;;;;30.86;72.60;101674.69;5014511;28;20351;-71
2023/07/09 09:32:17;;;;;;;;;;;;;;;30.76;75.62;101675.25;5009690;28;20270;-71
2023/07/09 09:34:42;;;;;;;;;;;;;;;30.75;69.21;101673.56;4998456;28;19925;-72
2023/07/09 09:37:11;;;;;;;;;;;;;;;31.00;71.29;101673.41;5017798;28;19972;-71
2023/07/09 09:39:38;;;;;;;;;;;;;;;31.21;65.52;101679.53;5017632;28;19979;-71
2023/07/09 09:42:03;;;;;;;;;;;;;;;31.23;64.12;101685.69;4991913;28;19988;-71
2023/07/09 09:44:28;;;;;;;;;;;;;;;31.27;65.50;101690.50;4995222;28;19929;-72
2023/07/09 09:46:55;;;;;;;;;;;;;;;31.24;57.74;101685.47;5015198;28;19921;-70
2023/07/09 09:49:21;;;;;;;;;;;;;;;31.44;61.71;101687.03;5011937;28;20395;-71
2023/07/09 09:51:46;;;;;;;;;;;;;;;31.77;55.71;101687.56;5015928;28;19928;-71
2023/07/09 09:54:16;;;;;;;;;;;;;;;32.01;58.69;101686.44;5016583;28;19967;-70
2023/07/09 09:56:42;;;;;;;;;;;;;;;32.30;52.51;101677.38;4998892;28;20471;-71
2023/07/09 09:59:13;;;;;;;;;;;;;;;32.38;51.73;101681.69;4991801;28;19922;-71
2023/07/09 10:01:39;;;;;;;;;;;;;;;32.51;51.68;101672.22;4991932;28;19947;-71
2023/07/09 10:04:04;;;;;;;;;;;;;;;32.57;58.92;101666.53;5015079;28;20355;-71
2023/07/09 10:06:37;;;;;;;;;;;;;;;32.69;57.83;101649.78;4979676;28;20352;-70
2023/07/09 10:09:02;;;;;;;;;;;;;;;33.03;56.36;101649.88;4988552;28;19921;-70
2023/07/09 10:11:46;;;;;;;;;;;;;;;32.94;51.57;101639.44;5018607;28;19921;-71
2023/07/09 10:14:19;;;;;;;;;;;;;;;33.13;53.27;101631.66;5015136;28;19925;-70
2023/07/09 10:16:45;;;;;;;;;;;;;;;33.01;60.62;101634.53;4999116;28;20119;-70
2023/07/09 10:19:11;;;;;;;;;;;;;;;33.16;58.12;101640.34;5013165;28;19921;-71
2023/07/09 10:21:41;;;;;;;;;;;;;;;33.25;51.42;101651.03;5017758;28;19931;-71
2023/07/09 10:24:11;;;;;;;;;;;;;;;33.39;49.35;101646.88;5015862;28;19921;-71
2023/07/09 10:26:41;;;;;;;;;;;;;;;33.30;49.95;101646.41;4999413;28;19931;-71
2023/07/09 10:29:29;;;;;;;;;;;;;;;33.33;48.91;101640.34;4999466;28;19917;-72
2023/07/09 10:31:55;;;;;;;;;;;;;;;33.78;51.52;101637.69;4991129;28;19978;-70
2023/07/09 10:34:23;;;;;;;;;;;;;;;33.59;50.27;101621.28;5014530;28;19936;-71
2023/07/09 10:37:03;;;;;;;;;;;;;;;33.65;51.70;101634.16;5014237;28;19936;-70
2023/07/09 10:39:31;;;;;;;;;;;;;;;33.56;46.49;101646.84;4997454;28;20027;-72
2023/07/09 10:41:56;;;;;;;;;;;;;;;34.06;43.81;101641.44;5013071;28;20044;-71
2023/07/09 10:44:33;;;;;;;;;;;;;;;34.63;44.21;101645.72;4991096;28;20024;-71
2023/07/09 10:46:59;;;;;;;;;;;;;;;34.70;46.26;101653.88;4990884;28;20248;-73
2023/07/09 10:49:25;;;;;;;;;;;;;;;35.17;46.67;101648.75;4995477;28;20008;-70
2023/07/09 10:51:51;;;;;;;;;;;;;;;35.53;42.13;101649.03;4993291;28;20315;-70
2023/07/09 10:54:23;;;;;;;;;;;;;;;35.79;45.34;101650.03;4995086;28;19929;-71
2023/07/09 10:56:48;;;;;;;;;;;;;;;35.41;42.80;101652.00;4996468;28;19929;-71
2023/07/09 10:59:20;;;;;;;;;;;;;;;35.40;40.95;101651.16;5012662;28;20376;-71
2023/07/09 11:01:46;;;;;;;;;;;;;;;35.26;46.49;101653.56;4993785;28;19921;-72
2023/07/09 11:04:18;;;;;;;;;;;;;;;35.21;45.43;101644.34;4991001;28;19932;-72
2023/07/09 11:06:45;;;;;;;;;;;;;;;35.09;43.57;101639.75;4974652;28;19972;-71
2023/07/09 11:09:15;;;;;;;;;;;;;;;35.44;41.80;101637.50;4991951;28;19925;-71
2023/07/09 11:11:41;;;;;;;;;;;;;;;35.68;45.62;101637.13;4989624;28;19947;-72
2023/07/09 11:14:11;;;;;;;;;;;;;;;35.52;44.25;101631.47;4994432;28;19925;-72
2023/07/09 11:16:38;;;;;;;;;;;;;;;34.83;49.32;101619.13;4980755;28;19987;-72
2023/07/09 11:19:05;;;;;;;;;;;;;;;34.92;47.73;101617.56;4994442;28;19928;-71
2023/07/09 11:21:30;;;;;;;;;;;;;;;34.43;45.01;101614.81;4992084;28;19925;-72
2023/07/09 11:24:00;;;;;;;;;;;;;;;35.47;50.09;101602.69;5013887;28;20633;-71
2023/07/09 11:26:27;;;;;;;;;;;;;;;35.75;42.89;101608.97;5000317;28;19921;-71
2023/07/09 11:28:53;;;;;;;;;;;;;;;35.57;43.37;101608.31;5018245;28;19979;-71
2023/07/09 11:31:23;;;;;;;;;;;;;;;35.88;41.50;101625.22;4994375;28;20322;-71
2023/07/09 11:33:56;;;;;;;;;;;;;;;35.46;44.36;101612.97;5008319;28;19976;-71
2023/07/09 11:36:25;;;;;;;;;;;;;;;34.68;40.15;101625.44;4995499;28;19939;-74
2023/07/09 11:38:51;;;;;;;;;;;;;;;35.05;37.94;101632.22;4995739;28;19925;-71
2023/07/09 11:41:27;;;;;;;;;;;;;;;35.05;43.03;101635.00;4988764;28;19933;-71
2023/07/09 11:43:52;;;;;;;;;;;;;;;35.60;48.69;101638.47;4989011;28;19932;-71
2023/07/09 11:46:18;;;;;;;;;;;;;;;34.31;44.45;101635.31;4997278;28;19929;-71
2023/07/09 11:48:43;;;;;;;;;;;;;;;33.75;46.62;101643.75;4998700;28;20082;-70
2023/07/09 11:51:13;;;;;;;;;;;;;;;33.76;46.49;101639.88;4997045;28;20082;-71
2023/07/09 11:53:44;;;;;;;;;;;;;;;33.62;49.67;101633.84;4991394;28;20028;-71
2023/07/09 11:56:09;;;;;;;;;;;;;;;34.09;48.40;101625.03;4995197;28;19929;-72
2023/07/09 11:58:34;;;;;;;;;;;;;;;33.99;50.15;101647.19;4980990;28;20299;-72
2023/07/09 12:01:01;;;;;;;;;;;;;;;33.74;47.44;101634.59;4996086;28;19925;-72
2023/07/09 12:03:27;;;;;;;;;;;;;;;33.60;48.57;101638.81;4991669;28;19921;-72
2023/07/09 12:05:53;;;;;;;;;;;;;;;33.61;49.28;101629.38;4991183;28;20411;-70
2023/07/09 12:08:20;;;;;;;;;;;;;;;33.37;48.74;101642.63;4979342;28;19921;-71
2023/07/09 12:10:45;;;;;;;;;;;;;;;33.02;51.49;101641.75;4994147;28;20445;-72
2023/07/09 12:13:10;;;;;;;;;;;;;;;32.74;50.15;101647.09;4996210;28;20150;-74
2023/07/09 12:15:36;;;;;;;;;;;;;;;32.78;50.96;101644.66;5005254;28;19998;-71
2023/07/09 12:18:02;;;;;;;;;;;;;;;32.81;52.62;101643.34;4985001;28;19929;-70
2023/07/09 12:20:31;;;;;;;;;;;;;;;32.61;48.95;101642.69;5004995;28;20338;-71
2023/07/09 12:22:56;;;;;;;;;;;;;;;32.80;49.02;101631.34;5010426;28;20064;-71
2023/07/09 12:25:23;;;;;;;;;;;;;;;33.29;53.12;101629.97;4972845;28;20000;-71
2023/07/09 12:27:48;;;;;;;;;;;;;;;33.37;51.35;101629.56;5001044;28;20177;-71